METAR Data
IDs: Format: Raw Decoded Include TAF

Data at: 1252 UTC 17 Sep 2019

METAR for:TUPJ (Beef Isl/Lettsome In, --, WI)
Text:TUPJ 171200Z 10012KT 10SM SCT018 30/24 A2996 RMK Q1014 VIS 30KM
Temperature: 30.0°C ( 86°F)
Dewpoint: 24.0°C ( 75°F) [RH = 70%]
Pressure (altimeter):29.96 inches Hg (1014.6 mb)
Winds:from the E (100 degrees) at 14 MPH (12 knots; 6.2 m/s)
Visibility:10 or more sm (16+ km)
Ceiling:at least 12,000 feet AGL
Clouds: scattered clouds at 1800 feet AGL